createdAt,value
2023-01-30T00:00:31.857Z,33.20
2023-01-30T00:03:04.709Z,28.90
2023-01-30T00:05:36.715Z,31.20
2023-01-30T00:08:09.256Z,31.50
2023-01-30T00:10:41.173Z,32.40
2023-01-30T00:13:14.858Z,36.40
2023-01-30T00:18:17.675Z,31.70
2023-01-30T00:20:49.691Z,30.50
2023-01-30T00:23:21.647Z,32.70
2023-01-30T00:25:53.594Z,31.90
2023-01-30T00:28:27.417Z,32.70
2023-01-30T00:33:30.907Z,32.00
2023-01-30T00:36:05.031Z,22.50
2023-01-30T00:38:37.462Z,32.40
2023-01-30T00:41:13.928Z,32.50
2023-01-30T00:44:05.756Z,28.50
2023-01-30T00:46:58.107Z,28.80
2023-01-30T00:49:31.958Z,29.00
2023-01-30T00:52:05.824Z,28.40
2023-01-30T00:54:39.496Z,26.00
2023-01-30T00:57:12.915Z,25.60
2023-01-30T00:59:46.824Z,26.90
2023-01-30T01:02:20.688Z,25.20
2023-01-30T01:04:53.788Z,24.30
2023-01-30T01:07:27.204Z,20.20
2023-01-30T01:10:01.029Z,25.50
2023-01-30T01:15:11.281Z,21.30
2023-01-30T01:17:45.286Z,26.00
2023-01-30T01:20:20.593Z,22.60
2023-01-30T01:22:57.235Z,24.30
2023-01-30T01:25:30.066Z,25.50
2023-01-30T01:28:02.205Z,24.40
2023-01-30T01:30:44.928Z,24.90
2023-01-30T01:33:36.748Z,22.90
2023-01-30T01:36:51.738Z,25.90
2023-01-30T01:39:17.105Z,22.70
2023-01-30T01:41:49.418Z,25.90
2023-01-30T01:44:21.453Z,22.10
2023-01-30T01:46:57.200Z,24.50
2023-01-30T01:49:33.350Z,25.70
2023-01-30T01:52:10.355Z,24.70
2023-01-30T01:54:48.985Z,23.10
2023-01-30T01:57:26.069Z,25.40
2023-01-30T02:00:04.131Z,22.50
2023-01-30T02:02:48.139Z,22.60
2023-01-30T02:05:21.628Z,26.40
2023-01-30T02:08:00.329Z,23.50
2023-01-30T02:10:39.227Z,21.50
2023-01-30T02:13:11.452Z,21.20
2023-01-30T02:15:43.687Z,21.90
2023-01-30T02:18:16.691Z,23.00
2023-01-30T02:21:11.178Z,22.20
2023-01-30T02:24:17.600Z,21.00
2023-01-30T02:27:09.743Z,23.00
2023-01-30T02:30:19.541Z,22.40
2023-01-30T02:33:01.193Z,23.30
2023-01-30T02:35:40.465Z,20.70
2023-01-30T02:38:24.318Z,22.20
2023-01-30T02:43:44.387Z,18.90
2023-01-30T02:46:21.319Z,20.10
2023-01-30T02:49:00.813Z,21.10
2023-01-30T02:51:38.791Z,20.50
2023-01-30T02:54:12.878Z,21.40
2023-01-30T02:56:53.487Z,21.70
2023-01-30T02:59:34.255Z,22.10
2023-01-30T03:02:39.538Z,22.00
2023-01-30T03:05:32.219Z,20.90
2023-01-30T03:08:18.168Z,24.20
2023-01-30T03:10:57.255Z,21.60
2023-01-30T03:13:39.365Z,21.90
2023-01-30T03:16:20.195Z,20.50
2023-01-30T03:18:52.911Z,21.60
2023-01-30T03:21:25.307Z,23.10
2023-01-30T03:23:57.525Z,23.20
2023-01-30T03:26:34.559Z,19.30
2023-01-30T03:29:06.783Z,19.70
2023-01-30T03:31:39.324Z,18.90
2023-01-30T03:34:11.646Z,17.70
2023-01-30T03:36:44.609Z,19.90
2023-01-30T03:39:16.817Z,21.30
2023-01-30T03:41:49.511Z,17.50
2023-01-30T03:44:23.401Z,16.30
2023-01-30T03:49:26.369Z,17.00
2023-01-30T03:51:59.445Z,15.90
2023-01-30T03:54:31.872Z,13.70
2023-01-30T03:57:04.653Z,16.60
2023-01-30T03:59:37.004Z,14.00
2023-01-30T04:02:12.669Z,15.60
2023-01-30T04:04:44.729Z,16.40
2023-01-30T04:07:18.138Z,13.80
2023-01-30T04:09:51.359Z,13.30
2023-01-30T04:12:24.408Z,15.30
2023-01-30T04:15:00.891Z,14.00
2023-01-30T04:17:55.310Z,15.30
2023-01-30T04:20:40.164Z,13.90
2023-01-30T04:23:12.217Z,15.10
2023-01-30T04:25:49.088Z,17.60
2023-01-30T04:28:22.458Z,16.10
2023-01-30T04:30:55.624Z,16.50
2023-01-30T04:33:57.419Z,13.00
2023-01-30T04:36:30.208Z,16.30
2023-01-30T04:39:02.768Z,14.50
2023-01-30T04:41:35.601Z,12.20
2023-01-30T04:44:08.326Z,14.20
2023-01-30T04:46:55.465Z,14.10
2023-01-30T04:49:27.837Z,14.90
2023-01-30T04:52:05.122Z,15.90
2023-01-30T04:54:37.441Z,14.60
2023-01-30T04:57:09.497Z,14.20
2023-01-30T04:59:41.386Z,15.40
2023-01-30T05:02:14.751Z,15.30
2023-01-30T05:04:47.047Z,14.70
2023-01-30T05:07:19.450Z,16.20
2023-01-30T05:09:51.335Z,14.40
2023-01-30T05:12:23.299Z,14.70
2023-01-30T05:14:55.271Z,17.40
2023-01-30T05:17:27.381Z,14.10
2023-01-30T05:19:59.296Z,13.30
2023-01-30T05:22:31.479Z,14.60
2023-01-30T05:25:03.515Z,14.80
2023-01-30T05:27:35.622Z,13.70
2023-01-30T05:30:10.766Z,15.80
2023-01-30T05:32:42.716Z,17.50
2023-01-30T05:35:14.906Z,15.90
2023-01-30T05:37:51.258Z,14.10
2023-01-30T05:40:23.688Z,13.60
2023-01-30T05:42:55.806Z,15.60
2023-01-30T05:45:31.737Z,15.20
2023-01-30T05:48:03.892Z,14.10
2023-01-30T05:50:36.401Z,15.20
2023-01-30T05:53:09.088Z,14.10
2023-01-30T05:55:41.496Z,12.00
2023-01-30T05:58:13.614Z,14.90
2023-01-30T06:00:45.663Z,13.70
2023-01-30T06:03:18.055Z,17.70
2023-01-30T06:05:50.489Z,17.50
2023-01-30T06:08:22.689Z,14.70
2023-01-30T06:10:54.698Z,14.50
2023-01-30T06:13:27.041Z,15.50
2023-01-30T06:16:01.726Z,15.00
2023-01-30T06:18:34.038Z,16.10
2023-01-30T06:21:06.727Z,16.00
2023-01-30T06:23:41.605Z,15.20
2023-01-30T06:26:13.639Z,15.80
2023-01-30T06:28:46.406Z,15.00
2023-01-30T06:31:22.169Z,17.80
2023-01-30T06:33:54.197Z,15.20
2023-01-30T06:36:26.232Z,14.20
2023-01-30T06:38:58.429Z,15.90
2023-01-30T06:41:31.977Z,16.40
2023-01-30T06:44:04.067Z,16.70
2023-01-30T06:46:36.065Z,17.10
2023-01-30T06:49:08.237Z,14.30
2023-01-30T06:51:40.124Z,17.30
2023-01-30T06:54:12.239Z,21.80
2023-01-30T06:56:44.307Z,19.30
2023-01-30T06:59:18.433Z,20.10
2023-01-30T07:01:50.547Z,18.00
2023-01-30T07:04:22.667Z,17.60
2023-01-30T07:06:54.611Z,16.10
2023-01-30T07:09:27.162Z,18.40
2023-01-30T07:11:59.347Z,14.80
2023-01-30T07:14:31.739Z,18.30
2023-01-30T07:17:04.058Z,16.60
2023-01-30T07:19:37.396Z,19.20
2023-01-30T07:22:09.893Z,16.60
2023-01-30T07:24:43.357Z,17.30
2023-01-30T07:27:15.926Z,15.30
2023-01-30T07:29:48.773Z,17.70
2023-01-30T07:32:21.707Z,14.80
2023-01-30T07:34:53.850Z,11.50
2023-01-30T07:37:25.852Z,16.50
2023-01-30T07:39:58.519Z,17.50
2023-01-30T07:42:30.677Z,16.70
2023-01-30T07:45:02.709Z,18.30
2023-01-30T07:47:34.973Z,16.30
2023-01-30T07:50:11.680Z,17.20
2023-01-30T07:52:43.717Z,19.30
2023-01-30T07:55:15.894Z,18.40
2023-01-30T07:57:48.235Z,16.70
2023-01-30T08:00:22.035Z,14.90
2023-01-30T08:02:54.279Z,18.40
2023-01-30T08:05:29.652Z,18.40
2023-01-30T08:08:03.038Z,19.60
2023-01-30T08:10:36.509Z,17.10
2023-01-30T08:13:08.675Z,14.50
2023-01-30T08:15:40.917Z,19.80
2023-01-30T08:18:15.768Z,18.40
2023-01-30T08:20:48.999Z,17.60
2023-01-30T08:23:21.061Z,19.30
2023-01-30T08:25:55.521Z,16.60
2023-01-30T08:28:28.338Z,18.40
2023-01-30T08:31:00.914Z,21.10
2023-01-30T08:33:33.382Z,20.40
2023-01-30T08:36:06.040Z,20.60
2023-01-30T08:38:38.227Z,20.00
2023-01-30T08:41:11.236Z,19.80
2023-01-30T08:43:44.008Z,18.90
2023-01-30T08:46:17.707Z,16.70
2023-01-30T08:48:50.467Z,21.20
2023-01-30T08:51:22.783Z,14.90
2023-01-30T08:53:55.348Z,19.70
2023-01-30T08:56:27.814Z,15.80
2023-01-30T08:59:00.000Z,19.00
2023-01-30T09:01:32.384Z,19.00
2023-01-30T09:04:04.841Z,17.50
2023-01-30T09:06:40.229Z,16.10
2023-01-30T09:09:12.542Z,17.50
2023-01-30T09:11:44.874Z,18.20
2023-01-30T09:14:19.941Z,16.40
2023-01-30T09:16:55.938Z,17.60
2023-01-30T09:19:29.986Z,15.20
2023-01-30T09:22:01.973Z,18.20
2023-01-30T09:24:35.515Z,15.50
2023-01-30T09:27:09.098Z,18.20
2023-01-30T09:29:43.611Z,18.80
2023-01-30T09:32:16.537Z,15.50
2023-01-30T09:34:48.688Z,19.90
2023-01-30T09:37:24.083Z,21.40
2023-01-30T09:39:56.546Z,17.30
2023-01-30T09:42:57.622Z,17.10
2023-01-30T09:45:47.259Z,15.50
2023-01-30T09:48:26.741Z,17.30
2023-01-30T09:51:24.857Z,19.50
2023-01-30T09:54:20.574Z,17.50
2023-01-30T09:57:01.321Z,17.30
2023-01-30T09:59:45.270Z,16.30
2023-01-30T10:02:37.607Z,17.10
2023-01-30T10:05:11.050Z,15.70
2023-01-30T10:08:15.645Z,20.70
2023-01-30T10:11:09.587Z,18.20
2023-01-30T10:13:58.193Z,15.30
2023-01-30T10:16:35.763Z,18.50
2023-01-30T10:19:40.407Z,18.20
2023-01-30T10:25:00.933Z,18.30
2023-01-30T10:27:35.160Z,16.40
2023-01-30T10:30:09.478Z,18.10
2023-01-30T10:32:50.503Z,19.40
2023-01-30T10:35:27.319Z,17.40
2023-01-30T10:38:06.967Z,17.20
2023-01-30T10:40:44.484Z,19.30
2023-01-30T10:43:27.983Z,16.70
2023-01-30T10:46:12.409Z,19.30
2023-01-30T10:48:59.783Z,19.00
2023-01-30T10:51:41.545Z,19.80
2023-01-30T10:54:20.096Z,17.40
2023-01-30T10:57:00.824Z,18.90
2023-01-30T10:59:43.546Z,18.00
2023-01-30T11:02:25.768Z,22.00
2023-01-30T11:05:04.383Z,19.80
2023-01-30T11:07:36.753Z,18.90
2023-01-30T11:10:23.949Z,21.50
2023-01-30T11:13:00.657Z,18.90
2023-01-30T11:15:45.985Z,19.30
2023-01-30T11:21:16.055Z,17.70
2023-01-30T11:23:51.317Z,19.90
2023-01-30T11:26:41.552Z,21.30
2023-01-30T11:29:30.137Z,21.20
2023-01-30T11:32:05.923Z,27.70
2023-01-30T11:34:43.122Z,22.20
2023-01-30T11:37:29.124Z,21.40
2023-01-30T11:40:01.692Z,23.80
2023-01-30T11:42:35.312Z,16.60
2023-01-30T11:45:17.616Z,22.80
2023-01-30T11:47:58.545Z,21.70
2023-01-30T11:50:37.142Z,18.40
2023-01-30T11:53:25.252Z,19.90
2023-01-30T11:56:06.396Z,18.50
2023-01-30T11:58:48.560Z,18.40
2023-01-30T12:01:20.822Z,19.30
2023-01-30T12:03:55.637Z,19.70
2023-01-30T12:06:33.352Z,21.50
2023-01-30T12:09:06.351Z,18.80
2023-01-30T12:11:46.584Z,19.70
2023-01-30T12:14:36.786Z,20.50
2023-01-30T12:17:19.356Z,18.20
2023-01-30T12:20:06.547Z,19.00
2023-01-30T12:22:44.722Z,18.90
2023-01-30T12:25:23.881Z,17.60
2023-01-30T12:28:03.704Z,18.80
2023-01-30T12:30:43.876Z,22.50
2023-01-30T12:36:04.920Z,21.20
2023-01-30T12:38:54.031Z,21.50
2023-01-30T12:41:42.020Z,20.50
2023-01-30T12:44:35.967Z,22.20
2023-01-30T12:47:32.086Z,21.70
2023-01-30T12:50:27.359Z,19.30
2023-01-30T12:53:23.893Z,19.30
2023-01-30T12:56:12.308Z,26.10
2023-01-30T12:58:50.854Z,19.90
2023-01-30T13:01:34.381Z,20.00
2023-01-30T13:04:20.229Z,20.10
2023-01-30T13:07:07.740Z,23.00
2023-01-30T13:09:52.507Z,20.40
2023-01-30T13:12:35.251Z,19.70
2023-01-30T13:15:20.074Z,21.30
2023-01-30T13:18:07.827Z,22.80
2023-01-30T13:20:55.720Z,21.50
2023-01-30T13:23:41.114Z,21.30
2023-01-30T13:26:16.498Z,20.60
2023-01-30T13:28:52.527Z,20.60
2023-01-30T13:31:30.627Z,20.40
2023-01-30T13:34:08.905Z,20.00
2023-01-30T13:36:49.210Z,20.10
2023-01-30T13:39:28.046Z,21.50
2023-01-30T13:42:02.719Z,18.40
2023-01-30T13:44:40.729Z,21.60
2023-01-30T13:47:29.680Z,19.20
2023-01-30T13:50:17.338Z,18.60
2023-01-30T13:52:56.585Z,19.90
2023-01-30T13:55:40.768Z,20.50
2023-01-30T13:58:33.433Z,26.70
2023-01-30T14:01:07.802Z,28.40
2023-01-30T14:03:40.348Z,24.90
2023-01-30T14:06:35.961Z,21.50
2023-01-30T14:09:24.635Z,24.10
2023-01-30T14:12:04.211Z,20.50
2023-01-30T14:14:45.821Z,19.70
2023-01-30T14:17:19.895Z,20.90
2023-01-30T14:22:37.923Z,19.40
2023-01-30T14:25:35.685Z,21.70
2023-01-30T14:28:51.207Z,18.10
2023-01-30T14:31:55.432Z,20.60
2023-01-30T14:34:47.832Z,17.30
2023-01-30T14:37:50.055Z,19.30
2023-01-30T14:41:10.456Z,17.90
2023-01-30T14:43:53.304Z,21.60
2023-01-30T14:46:58.438Z,18.30
2023-01-30T14:49:36.615Z,19.40
2023-01-30T14:52:25.149Z,20.90
2023-01-30T14:55:00.822Z,19.20
2023-01-30T14:57:35.015Z,21.40
2023-01-30T15:00:19.336Z,19.60
2023-01-30T15:02:59.425Z,20.00
2023-01-30T15:05:35.700Z,16.70
2023-01-30T15:08:14.434Z,17.60
2023-01-30T15:11:07.113Z,18.90
2023-01-30T15:13:58.033Z,17.90
2023-01-30T15:16:55.845Z,18.40
2023-01-30T15:23:55.783Z,22.00
2023-01-30T15:26:51.437Z,17.10
2023-01-30T15:29:56.900Z,18.40
2023-01-30T15:32:31.223Z,19.70
2023-01-30T15:37:53.866Z,21.10
2023-01-30T15:40:31.758Z,21.10
2023-01-30T15:43:31.143Z,19.10
2023-01-30T15:46:13.061Z,22.40
2023-01-30T15:49:28.422Z,20.70
2023-01-30T15:52:04.809Z,20.00
2023-01-30T15:55:02.621Z,21.10
2023-01-30T15:57:58.559Z,21.80
2023-01-30T16:03:26.591Z,20.90
2023-01-30T16:06:00.613Z,21.60
2023-01-30T16:08:34.528Z,23.00
2023-01-30T16:11:41.530Z,24.10
2023-01-30T16:14:31.763Z,22.10
2023-01-30T16:19:51.735Z,27.30
2023-01-30T16:22:25.516Z,29.20
2023-01-30T16:25:01.003Z,23.20
2023-01-30T16:33:20.976Z,31.20
2023-01-30T16:38:38.998Z,25.20
2023-01-30T16:41:35.089Z,27.60
2023-01-30T16:44:30.493Z,21.50
2023-01-30T16:50:28.969Z,23.30
2023-01-30T16:58:55.871Z,25.70
2023-01-30T17:01:39.174Z,22.50
2023-01-30T17:04:23.592Z,21.90
2023-01-30T17:07:01.828Z,24.60
2023-01-30T17:19:00.476Z,30.10
2023-01-30T17:25:04.055Z,27.10
2023-01-30T17:27:59.996Z,26.50
2023-01-30T17:33:57.877Z,23.80
2023-01-30T17:40:02.168Z,21.70
2023-01-30T17:42:51.239Z,19.90
2023-01-30T17:45:23.769Z,20.80
2023-01-30T17:47:58.325Z,19.80
2023-01-30T17:50:33.492Z,21.80
2023-01-30T17:53:22.787Z,20.40
2023-01-30T17:55:55.647Z,24.10
2023-01-30T17:58:31.740Z,24.10
2023-01-30T18:01:05.096Z,21.40
2023-01-30T18:04:02.705Z,20.30
2023-01-30T18:07:02.969Z,20.70
2023-01-30T18:09:58.967Z,20.70
2023-01-30T18:15:23.056Z,21.50
2023-01-30T18:18:02.602Z,21.40
2023-01-30T18:20:35.340Z,19.80
2023-01-30T18:23:29.533Z,19.40
2023-01-30T18:29:34.976Z,21.80
2023-01-30T18:32:27.348Z,20.70
2023-01-30T18:40:51.783Z,22.60
2023-01-30T18:50:23.788Z,18.70
2023-01-30T18:52:56.446Z,16.10
2023-01-30T18:55:58.138Z,22.10
2023-01-30T18:58:42.466Z,21.20
2023-01-30T19:01:20.877Z,24.30
2023-01-30T19:04:00.385Z,22.70
2023-01-30T19:06:39.834Z,20.10
2023-01-30T19:09:19.300Z,20.10
2023-01-30T19:12:11.784Z,20.80
2023-01-30T19:14:47.988Z,20.20
2023-01-30T19:17:25.047Z,19.10
2023-01-30T19:20:02.130Z,22.00
2023-01-30T19:22:38.086Z,18.10
2023-01-30T19:25:18.526Z,20.50
2023-01-30T19:27:54.467Z,17.50
2023-01-30T19:30:33.218Z,18.20
2023-01-30T19:33:10.945Z,17.00
2023-01-30T19:35:51.455Z,18.20
2023-01-30T19:38:30.350Z,18.00
2023-01-30T19:41:05.763Z,17.70
2023-01-30T19:43:43.770Z,20.10
2023-01-30T19:46:23.477Z,19.80
2023-01-30T19:48:56.529Z,18.80
2023-01-30T19:51:30.356Z,18.30
2023-01-30T19:54:08.419Z,16.00
2023-01-30T19:56:43.047Z,25.50
2023-01-30T19:59:20.577Z,18.40
2023-01-30T20:01:55.847Z,16.50
2023-01-30T20:04:29.245Z,17.30
2023-01-30T20:07:01.769Z,17.60
2023-01-30T20:09:34.233Z,16.90
2023-01-30T20:12:06.625Z,16.40
2023-01-30T20:14:40.157Z,17.00
2023-01-30T20:17:14.444Z,17.70
2023-01-30T20:19:46.643Z,15.30
2023-01-30T20:22:18.858Z,16.30
2023-01-30T20:24:51.511Z,15.20
2023-01-30T20:27:28.323Z,16.30
2023-01-30T20:30:00.926Z,17.80
2023-01-30T20:32:34.142Z,16.00
2023-01-30T20:35:08.272Z,16.10
2023-01-30T20:37:41.163Z,15.10
2023-01-30T20:40:19.537Z,16.20
2023-01-30T20:42:52.830Z,16.50
2023-01-30T20:45:25.444Z,16.70
2023-01-30T20:47:59.088Z,18.00
2023-01-30T20:50:32.580Z,19.70
2023-01-30T20:53:05.161Z,18.40
2023-01-30T20:55:38.477Z,17.40
2023-01-30T20:58:13.851Z,14.70
2023-01-30T21:00:46.882Z,18.70
2023-01-30T21:03:21.038Z,16.80
2023-01-30T21:06:01.635Z,16.80
2023-01-30T21:08:34.984Z,16.20
2023-01-30T21:11:12.758Z,15.30
2023-01-30T21:13:48.378Z,16.40
2023-01-30T21:16:23.223Z,16.40
2023-01-30T21:19:00.479Z,16.20
2023-01-30T21:21:40.251Z,17.70
2023-01-30T21:24:15.553Z,19.20
2023-01-30T21:26:52.029Z,17.70
2023-01-30T21:29:26.845Z,16.30
2023-01-30T21:32:00.890Z,17.00
2023-01-30T21:34:35.449Z,18.00
2023-01-30T21:37:24.772Z,20.40
2023-01-30T21:40:18.211Z,17.70
2023-01-30T21:43:11.720Z,15.40
2023-01-30T21:45:44.551Z,15.10
2023-01-30T21:48:17.070Z,16.20
2023-01-30T21:50:50.029Z,15.50
2023-01-30T21:53:23.847Z,17.00
2023-01-30T21:55:56.221Z,19.10
2023-01-30T21:58:31.441Z,16.80
2023-01-30T22:01:09.702Z,16.30
2023-01-30T22:03:44.945Z,14.40
2023-01-30T22:06:17.269Z,14.00
2023-01-30T22:08:49.836Z,15.10
2023-01-30T22:11:21.858Z,13.70
2023-01-30T22:13:54.833Z,14.60
2023-01-30T22:16:29.302Z,12.90
2023-01-30T22:19:06.323Z,15.10
2023-01-30T22:21:41.827Z,11.10
2023-01-30T22:24:16.583Z,11.10
2023-01-30T22:26:49.912Z,12.40
2023-01-30T22:29:22.579Z,11.20
2023-01-30T22:31:55.084Z,10.30
2023-01-30T22:34:27.480Z,10.80
2023-01-30T22:37:00.785Z,8.60
2023-01-30T22:39:32.927Z,9.60
2023-01-30T22:42:05.499Z,10.20
2023-01-30T22:44:40.840Z,10.10
2023-01-30T22:47:13.616Z,10.00
2023-01-30T22:49:45.706Z,9.20
2023-01-30T22:52:17.947Z,8.70
2023-01-30T22:54:50.208Z,10.10
2023-01-30T22:57:22.539Z,6.60
2023-01-30T22:59:55.209Z,6.10
2023-01-30T23:02:27.344Z,6.50
2023-01-30T23:05:01.885Z,5.60
2023-01-30T23:07:34.161Z,7.80
2023-01-30T23:10:06.957Z,10.00
2023-01-30T23:12:56.358Z,7.30
2023-01-30T23:15:29.987Z,10.20
2023-01-30T23:18:22.286Z,7.20
2023-01-30T23:20:55.647Z,7.60
2023-01-30T23:23:28.039Z,6.70
2023-01-30T23:26:03.052Z,6.90
2023-01-30T23:28:36.599Z,6.50
2023-01-30T23:31:14.139Z,6.20
2023-01-30T23:33:46.716Z,9.60
2023-01-30T23:36:18.796Z,6.10
2023-01-30T23:38:54.030Z,8.60
2023-01-30T23:41:27.988Z,4.40
2023-01-30T23:44:01.558Z,6.70
2023-01-30T23:46:35.723Z,6.60
2023-01-30T23:49:09.558Z,9.50
2023-01-30T23:51:44.311Z,12.60
2023-01-30T23:54:16.875Z,11.40
2023-01-30T23:56:49.229Z,12.00
2023-01-30T23:59:21.620Z,11.10
